Terminal Aerodrome Forecast
Issued by NWS

Home | Current Version | Previous Version | Text Only | Print | Product List | Glossary On
Versions: 1 2 3 4 5 6 7 8 9 10 11 12 13 14 15 16 17 18 19 20 21 22 23 24 25 26 27 28 29 30 31 32 33 34 35 36 37 38 39 40
000
FTUS41 KGYX 250131 AAB
TAFAUG
TAF AMD
KAUG 250131Z 2502/2524 01013G21KT 5SM -FZRAPL OVC010
     FM250400 02012KT P6SM OVC007
      TEMPO 2504/2507 2SM FZRA OVC003
     FM250900 35011KT 2SM BR OVC003
     FM251500 33009KT P6SM OVC020=

USA.gov is the U.S. government's official web portal to all federal, state and local government web resources and services.